sensor_id;sensor_type;location;lat;lon;timestamp;pressure;altitude;pressure_sealevel;temperature;humidity
70133;BME280;57495;49.922;7.966;2023-01-29T00:00:08;101309.47;;;0.80;75.37
70133;BME280;57495;49.922;7.966;2023-01-29T00:02:10;101306.09;;;0.76;75.67
70133;BME280;57495;49.922;7.966;2023-01-29T00:04:11;101303.53;;;0.74;76.13
70133;BME280;57495;49.922;7.966;2023-01-29T00:06:12;101315.56;;;0.53;75.26
70133;BME280;57495;49.922;7.966;2023-01-29T00:08:14;101310.94;;;0.62;73.54
70133;BME280;57495;49.922;7.966;2023-01-29T00:10:16;101310.69;;;0.69;73.63
70133;BME280;57495;49.922;7.966;2023-01-29T00:12:18;101302.75;;;0.71;73.43
70133;BME280;57495;49.922;7.966;2023-01-29T00:14:20;101308.91;;;0.70;74.11
70133;BME280;57495;49.922;7.966;2023-01-29T00:16:21;101304.84;;;0.60;74.29
70133;BME280;57495;49.922;7.966;2023-01-29T00:18:24;101301.00;;;0.70;73.68
70133;BME280;57495;49.922;7.966;2023-01-29T00:20:26;101299.22;;;0.70;72.62
70133;BME280;57495;49.922;7.966;2023-01-29T00:22:29;101303.75;;;0.67;72.73
70133;BME280;57495;49.922;7.966;2023-01-29T00:24:30;101309.75;;;0.70;74.42
70133;BME280;57495;49.922;7.966;2023-01-29T00:26:32;101311.41;;;0.74;74.76
70133;BME280;57495;49.922;7.966;2023-01-29T00:28:34;101329.97;;;0.70;73.29
70133;BME280;57495;49.922;7.966;2023-01-29T00:30:36;101330.75;;;0.73;73.76
70133;BME280;57495;49.922;7.966;2023-01-29T00:32:38;101336.84;;;0.74;74.17
70133;BME280;57495;49.922;7.966;2023-01-29T00:34:40;101338.03;;;0.65;73.82
70133;BME280;57495;49.922;7.966;2023-01-29T00:36:41;101340.97;;;0.54;73.40
70133;BME280;57495;49.922;7.966;2023-01-29T00:38:44;101330.16;;;0.64;72.94
70133;BME280;57495;49.922;7.966;2023-01-29T00:40:53;101327.56;;;0.62;74.39
70133;BME280;57495;49.922;7.966;2023-01-29T00:43:13;101328.44;;;0.63;73.45
70133;BME280;57495;49.922;7.966;2023-01-29T00:45:33;101330.97;;;0.66;73.79
70133;BME280;57495;49.922;7.966;2023-01-29T00:47:36;101333.53;;;0.69;73.50
70133;BME280;57495;49.922;7.966;2023-01-29T00:49:37;101335.50;;;0.61;73.65
70133;BME280;57495;49.922;7.966;2023-01-29T00:51:39;101319.84;;;0.57;74.02
70133;BME280;57495;49.922;7.966;2023-01-29T00:53:40;101314.56;;;0.57;74.66
70133;BME280;57495;49.922;7.966;2023-01-29T00:55:43;101312.84;;;0.56;74.73
70133;BME280;57495;49.922;7.966;2023-01-29T00:57:45;101317.22;;;0.57;75.47
70133;BME280;57495;49.922;7.966;2023-01-29T00:59:46;101323.44;;;0.53;75.27
70133;BME280;57495;49.922;7.966;2023-01-29T01:01:49;101331.34;;;0.53;74.54
70133;BME280;57495;49.922;7.966;2023-01-29T01:04:10;101327.00;;;0.52;74.14
70133;BME280;57495;49.922;7.966;2023-01-29T01:06:11;101325.25;;;0.51;73.86
70133;BME280;57495;49.922;7.966;2023-01-29T01:08:13;101321.84;;;0.48;73.95
70133;BME280;57495;49.922;7.966;2023-01-29T01:10:32;101321.91;;;0.46;74.66
70133;BME280;57495;49.922;7.966;2023-01-29T01:12:33;101315.28;;;0.33;75.10
70133;BME280;57495;49.922;7.966;2023-01-29T01:14:34;101321.19;;;0.41;74.50
70133;BME280;57495;49.922;7.966;2023-01-29T01:16:36;101315.13;;;0.39;74.52
70133;BME280;57495;49.922;7.966;2023-01-29T01:18:39;101302.63;;;0.46;73.84
70133;BME280;57495;49.922;7.966;2023-01-29T01:20:40;101307.66;;;0.53;74.05
70133;BME280;57495;49.922;7.966;2023-01-29T01:22:42;101308.13;;;0.38;73.54
70133;BME280;57495;49.922;7.966;2023-01-29T01:24:44;101294.69;;;0.47;74.01
70133;BME280;57495;49.922;7.966;2023-01-29T01:26:45;101293.69;;;0.51;73.57
70133;BME280;57495;49.922;7.966;2023-01-29T01:28:46;101285.66;;;0.56;73.42
70133;BME280;57495;49.922;7.966;2023-01-29T01:30:48;101289.09;;;0.58;73.59
70133;BME280;57495;49.922;7.966;2023-01-29T01:32:50;101288.25;;;0.57;73.26
70133;BME280;57495;49.922;7.966;2023-01-29T01:34:53;101294.84;;;0.43;73.79
70133;BME280;57495;49.922;7.966;2023-01-29T01:36:55;101288.53;;;0.48;74.47
70133;BME280;57495;49.922;7.966;2023-01-29T01:38:56;101284.97;;;0.49;74.83
70133;BME280;57495;49.922;7.966;2023-01-29T01:40:58;101280.66;;;0.48;75.86
70133;BME280;57495;49.922;7.966;2023-01-29T01:43:00;101280.56;;;0.50;75.75
70133;BME280;57495;49.922;7.966;2023-01-29T01:45:03;101276.06;;;0.53;74.83
70133;BME280;57495;49.922;7.966;2023-01-29T01:47:07;101270.81;;;0.53;74.21
70133;BME280;57495;49.922;7.966;2023-01-29T01:49:11;101267.38;;;0.51;75.58
70133;BME280;57495;49.922;7.966;2023-01-29T01:51:17;101263.28;;;0.43;73.23
70133;BME280;57495;49.922;7.966;2023-01-29T01:53:22;101262.22;;;0.48;73.80
70133;BME280;57495;49.922;7.966;2023-01-29T01:55:27;101253.41;;;0.49;74.61
70133;BME280;57495;49.922;7.966;2023-01-29T01:57:31;101258.66;;;0.49;74.29
70133;BME280;57495;49.922;7.966;2023-01-29T01:59:32;101253.50;;;0.46;75.00
70133;BME280;57495;49.922;7.966;2023-01-29T02:01:34;101255.13;;;0.50;76.84
70133;BME280;57495;49.922;7.966;2023-01-29T02:03:41;101247.56;;;0.40;77.16
70133;BME280;57495;49.922;7.966;2023-01-29T02:06:02;101254.63;;;0.39;74.41
70133;BME280;57495;49.922;7.966;2023-01-29T02:08:26;101249.19;;;0.44;74.48
70133;BME280;57495;49.922;7.966;2023-01-29T02:10:48;101249.19;;;0.44;74.07
70133;BME280;57495;49.922;7.966;2023-01-29T02:12:50;101250.84;;;0.46;74.52
70133;BME280;57495;49.922;7.966;2023-01-29T02:14:51;101246.72;;;0.39;73.41
70133;BME280;57495;49.922;7.966;2023-01-29T02:16:53;101244.97;;;0.38;72.21
70133;BME280;57495;49.922;7.966;2023-01-29T02:18:54;101243.09;;;0.43;73.93
70133;BME280;57495;49.922;7.966;2023-01-29T02:21:09;101239.75;;;0.36;74.89
70133;BME280;57495;49.922;7.966;2023-01-29T02:23:28;101238.81;;;0.09;74.89
70133;BME280;57495;49.922;7.966;2023-01-29T02:25:49;101240.78;;;-0.27;74.41
70133;BME280;57495;49.922;7.966;2023-01-29T02:28:15;101246.63;;;-0.17;74.27
70133;BME280;57495;49.922;7.966;2023-01-29T02:30:24;101248.81;;;-0.02;73.13
70133;BME280;57495;49.922;7.966;2023-01-29T02:32:32;101244.00;;;0.12;74.23
70133;BME280;57495;49.922;7.966;2023-01-29T02:34:40;101251.81;;;0.15;73.25
70133;BME280;57495;49.922;7.966;2023-01-29T02:37:07;101260.56;;;0.16;73.60
70133;BME280;57495;49.922;7.966;2023-01-29T02:39:15;101259.59;;;0.18;73.40
70133;BME280;57495;49.922;7.966;2023-01-29T02:41:25;101263.06;;;0.21;73.55
70133;BME280;57495;49.922;7.966;2023-01-29T02:43:36;101268.16;;;0.25;73.73
70133;BME280;57495;49.922;7.966;2023-01-29T02:45:44;101272.47;;;0.28;74.70
70133;BME280;57495;49.922;7.966;2023-01-29T02:47:55;101268.97;;;0.27;76.18
70133;BME280;57495;49.922;7.966;2023-01-29T02:50:02;101281.19;;;0.30;75.87
70133;BME280;57495;49.922;7.966;2023-01-29T02:52:10;101283.91;;;0.27;75.98
70133;BME280;57495;49.922;7.966;2023-01-29T02:54:18;101289.03;;;0.31;76.04
70133;BME280;57495;49.922;7.966;2023-01-29T02:56:26;101285.53;;;0.31;76.51
70133;BME280;57495;49.922;7.966;2023-01-29T02:58:34;101287.28;;;0.32;76.19
70133;BME280;57495;49.922;7.966;2023-01-29T03:00:40;101289.91;;;0.32;76.95
70133;BME280;57495;49.922;7.966;2023-01-29T03:02:46;101288.94;;;0.34;77.22
70133;BME280;57495;49.922;7.966;2023-01-29T03:04:52;101288.91;;;0.36;77.32
70133;BME280;57495;49.922;7.966;2023-01-29T03:06:57;101281.91;;;0.35;76.74
70133;BME280;57495;49.922;7.966;2023-01-29T03:09:04;101277.56;;;0.34;76.26
70133;BME280;57495;49.922;7.966;2023-01-29T03:11:09;101270.56;;;0.33;78.07
70133;BME280;57495;49.922;7.966;2023-01-29T03:13:17;101271.50;;;0.32;78.16
70133;BME280;57495;49.922;7.966;2023-01-29T03:15:27;101259.22;;;0.31;77.65
70133;BME280;57495;49.922;7.966;2023-01-29T03:17:34;101262.66;;;0.33;77.25
70133;BME280;57495;49.922;7.966;2023-01-29T03:19:40;101270.69;;;0.30;74.97
70133;BME280;57495;49.922;7.966;2023-01-29T03:21:47;101267.09;;;0.32;74.47
70133;BME280;57495;49.922;7.966;2023-01-29T03:23:52;101259.97;;;0.36;75.11
70133;BME280;57495;49.922;7.966;2023-01-29T03:26:15;101271.38;;;0.35;74.34
70133;BME280;57495;49.922;7.966;2023-01-29T03:28:36;101268.75;;;0.35;76.97
70133;BME280;57495;49.922;7.966;2023-01-29T03:31:01;101274.13;;;0.32;76.29
70133;BME280;57495;49.922;7.966;2023-01-29T03:33:23;101274.19;;;0.29;76.03
70133;BME280;57495;49.922;7.966;2023-01-29T03:35:27;101280.34;;;0.28;75.26
70133;BME280;57495;49.922;7.966;2023-01-29T03:37:37;101282.91;;;0.31;75.43
70133;BME280;57495;49.922;7.966;2023-01-29T03:39:40;101286.53;;;0.27;74.99
70133;BME280;57495;49.922;7.966;2023-01-29T03:41:45;101283.00;;;0.28;75.10
70133;BME280;57495;49.922;7.966;2023-01-29T03:43:54;101279.50;;;0.27;74.87
70133;BME280;57495;49.922;7.966;2023-01-29T03:46:02;101279.47;;;0.29;73.75
70133;BME280;57495;49.922;7.966;2023-01-29T03:48:09;101276.09;;;0.24;73.43
70133;BME280;57495;49.922;7.966;2023-01-29T03:50:21;101274.34;;;0.24;72.99
70133;BME280;57495;49.922;7.966;2023-01-29T03:52:34;101268.13;;;0.27;73.69
70133;BME280;57495;49.922;7.966;2023-01-29T03:54:46;101260.28;;;0.25;73.76
70133;BME280;57495;49.922;7.966;2023-01-29T03:56:56;101266.75;;;0.15;75.33
70133;BME280;57495;49.922;7.966;2023-01-29T03:59:03;101272.81;;;0.17;76.73
70133;BME280;57495;49.922;7.966;2023-01-29T04:01:17;101284.09;;;0.21;76.48
70133;BME280;57495;49.922;7.966;2023-01-29T04:03:23;101285.84;;;0.20;76.75
70133;BME280;57495;49.922;7.966;2023-01-29T04:05:32;101280.53;;;0.22;77.97
70133;BME280;57495;49.922;7.966;2023-01-29T04:07:38;101279.53;;;0.26;78.49
70133;BME280;57495;49.922;7.966;2023-01-29T04:09:46;101281.31;;;0.25;78.45
70133;BME280;57495;49.922;7.966;2023-01-29T04:11:54;101273.59;;;0.21;78.59
70133;BME280;57495;49.922;7.966;2023-01-29T04:13:58;101269.19;;;0.21;78.97
70133;BME280;57495;49.922;7.966;2023-01-29T04:16:00;101256.06;;;0.19;78.60
70133;BME280;57495;49.922;7.966;2023-01-29T04:18:05;101255.22;;;0.19;78.80
70133;BME280;57495;49.922;7.966;2023-01-29T04:20:08;101259.59;;;0.18;78.95
70133;BME280;57495;49.922;7.966;2023-01-29T04:22:14;101261.59;;;0.10;79.23
70133;BME280;57495;49.922;7.966;2023-01-29T04:24:17;101270.22;;;0.15;78.76
70133;BME280;57495;49.922;7.966;2023-01-29T04:26:33;101263.38;;;0.10;79.21
70133;BME280;57495;49.922;7.966;2023-01-29T04:28:52;101264.19;;;0.12;79.48
70133;BME280;57495;49.922;7.966;2023-01-29T04:30:58;101262.44;;;0.11;79.91
70133;BME280;57495;49.922;7.966;2023-01-29T04:33:13;101267.66;;;0.12;79.53
70133;BME280;57495;49.922;7.966;2023-01-29T04:35:26;101266.84;;;0.10;78.54
70133;BME280;57495;49.922;7.966;2023-01-29T04:37:36;101260.56;;;0.16;77.82
70133;BME280;57495;49.922;7.966;2023-01-29T04:39:47;101259.03;;;0.07;77.65
70133;BME280;57495;49.922;7.966;2023-01-29T04:41:53;101267.03;;;0.04;77.38
70133;BME280;57495;49.922;7.966;2023-01-29T04:44:02;101265.03;;;0.12;77.67
70133;BME280;57495;49.922;7.966;2023-01-29T04:46:11;101264.97;;;0.15;78.05
70133;BME280;57495;49.922;7.966;2023-01-29T04:48:19;101265.03;;;0.12;78.48
70133;BME280;57495;49.922;7.966;2023-01-29T04:50:25;101265.22;;;0.06;78.00
70133;BME280;57495;49.922;7.966;2023-01-29T04:52:36;101265.69;;;-0.09;77.93
70133;BME280;57495;49.922;7.966;2023-01-29T04:54:49;101258.50;;;-0.04;77.90
70133;BME280;57495;49.922;7.966;2023-01-29T04:56:55;101256.31;;;-0.20;78.87
70133;BME280;57495;49.922;7.966;2023-01-29T04:59:02;101263.13;;;-0.12;78.55
70133;BME280;57495;49.922;7.966;2023-01-29T05:01:07;101262.13;;;-0.08;78.10
70133;BME280;57495;49.922;7.966;2023-01-29T05:03:12;101261.91;;;-0.01;77.90
70133;BME280;57495;49.922;7.966;2023-01-29T05:05:18;101267.47;;;-0.11;77.43
70133;BME280;57495;49.922;7.966;2023-01-29T05:07:21;101267.31;;;-0.05;77.68
70133;BME280;57495;49.922;7.966;2023-01-29T05:09:24;101263.88;;;-0.07;77.95
70133;BME280;57495;49.922;7.966;2023-01-29T05:11:26;101268.19;;;-0.06;78.08
70133;BME280;57495;49.922;7.966;2023-01-29T05:13:31;101268.13;;;-0.03;78.38
70133;BME280;57495;49.922;7.966;2023-01-29T05:15:38;101277.97;;;-0.11;78.54
70133;BME280;57495;49.922;7.966;2023-01-29T05:17:41;101277.72;;;-0.02;78.74
70133;BME280;57495;49.922;7.966;2023-01-29T05:19:42;101268.94;;;-0.01;78.47
70133;BME280;57495;49.922;7.966;2023-01-29T05:21:47;101262.28;;;-0.13;78.22
70133;BME280;57495;49.922;7.966;2023-01-29T05:24:05;101246.13;;;-0.32;78.70
70133;BME280;57495;49.922;7.966;2023-01-29T05:26:06;101246.63;;;-0.17;78.56
70133;BME280;57495;49.922;7.966;2023-01-29T05:28:08;101251.00;;;-0.16;78.84
70133;BME280;57495;49.922;7.966;2023-01-29T05:30:15;101243.09;;;-0.16;78.57
70133;BME280;57495;49.922;7.966;2023-01-29T05:32:17;101240.56;;;-0.20;78.24
70133;BME280;57495;49.922;7.966;2023-01-29T05:34:18;101237.31;;;-0.61;80.00
70133;BME280;57495;49.922;7.966;2023-01-29T05:36:20;101236.06;;;-0.47;79.84
70133;BME280;57495;49.922;7.966;2023-01-29T05:38:23;101238.84;;;-0.86;80.95
70133;BME280;57495;49.922;7.966;2023-01-29T05:40:24;101247.72;;;-0.57;80.43
70133;BME280;57495;49.922;7.966;2023-01-29T05:42:25;101257.00;;;-0.44;80.59
70133;BME280;57495;49.922;7.966;2023-01-29T05:44:27;101257.72;;;-0.39;81.16
70133;BME280;57495;49.922;7.966;2023-01-29T05:46:28;101256.75;;;-0.35;80.69
70133;BME280;57495;49.922;7.966;2023-01-29T05:48:30;101261.06;;;-0.32;80.79
70133;BME280;57495;49.922;7.966;2023-01-29T05:50:31;101250.31;;;-0.25;80.15
70133;BME280;57495;49.922;7.966;2023-01-29T05:52:33;101257.31;;;-0.24;80.29
70133;BME280;57495;49.922;7.966;2023-01-29T05:54:35;101259.00;;;-0.21;80.28
70133;BME280;57495;49.922;7.966;2023-01-29T05:56:37;101257.41;;;-0.27;80.40
70133;BME280;57495;49.922;7.966;2023-01-29T05:58:38;101259.03;;;-0.23;80.38
70133;BME280;57495;49.922;7.966;2023-01-29T06:00:40;101266.03;;;-0.22;80.23
70133;BME280;57495;49.922;7.966;2023-01-29T06:02:41;101259.97;;;-0.25;80.71
70133;BME280;57495;49.922;7.966;2023-01-29T06:04:43;101259.97;;;-0.25;80.82
70133;BME280;57495;49.922;7.966;2023-01-29T06:06:44;101259.13;;;-0.26;79.65
70133;BME280;57495;49.922;7.966;2023-01-29T06:08:46;101273.16;;;-0.27;79.41
70133;BME280;57495;49.922;7.966;2023-01-29T06:10:48;101284.63;;;-0.29;79.57
70133;BME280;57495;49.922;7.966;2023-01-29T06:12:50;101273.22;;;-0.30;79.75
70133;BME280;57495;49.922;7.966;2023-01-29T06:14:51;101265.41;;;-0.31;79.33
70133;BME280;57495;49.922;7.966;2023-01-29T06:16:52;101265.31;;;-0.28;79.09
70133;BME280;57495;49.922;7.966;2023-01-29T06:18:54;101257.44;;;-0.28;78.62
70133;BME280;57495;49.922;7.966;2023-01-29T06:20:59;101262.72;;;-0.30;78.81
70133;BME280;57495;49.922;7.966;2023-01-29T06:23:00;101259.25;;;-0.30;78.97
70133;BME280;57495;49.922;7.966;2023-01-29T06:25:02;101262.81;;;-0.33;79.91
70133;BME280;57495;49.922;7.966;2023-01-29T06:27:05;101249.75;;;-0.36;80.12
70133;BME280;57495;49.922;7.966;2023-01-29T06:29:06;101241.88;;;-0.36;79.67
70133;BME280;57495;49.922;7.966;2023-01-29T06:31:09;101235.78;;;-0.36;79.70
70133;BME280;57495;49.922;7.966;2023-01-29T06:33:11;101240.22;;;-0.38;78.65
70133;BME280;57495;49.922;7.966;2023-01-29T06:35:12;101240.25;;;-0.40;78.92
70133;BME280;57495;49.922;7.966;2023-01-29T06:37:14;101243.78;;;-0.41;79.46
70133;BME280;57495;49.922;7.966;2023-01-29T06:39:15;101240.31;;;-0.43;80.39
70133;BME280;57495;49.922;7.966;2023-01-29T06:41:18;101242.16;;;-0.47;80.28
70133;BME280;57495;49.922;7.966;2023-01-29T06:43:23;101236.88;;;-0.45;80.33
70133;BME280;57495;49.922;7.966;2023-01-29T06:45:25;101243.94;;;-0.47;80.14
70133;BME280;57495;49.922;7.966;2023-01-29T06:47:26;101243.91;;;-0.46;79.45
70133;BME280;57495;49.922;7.966;2023-01-29T06:49:28;101246.44;;;-0.43;80.81
70133;BME280;57495;49.922;7.966;2023-01-29T06:51:29;101247.34;;;-0.44;82.20
70133;BME280;57495;49.922;7.966;2023-01-29T06:53:31;101250.84;;;-0.43;82.67
70133;BME280;57495;49.922;7.966;2023-01-29T06:55:33;101248.25;;;-0.45;82.08
70133;BME280;57495;49.922;7.966;2023-01-29T06:57:35;101250.06;;;-0.47;81.69
70133;BME280;57495;49.922;7.966;2023-01-29T06:59:37;101251.88;;;-0.49;82.27
70133;BME280;57495;49.922;7.966;2023-01-29T07:01:39;101251.00;;;-0.49;81.60
70133;BME280;57495;49.922;7.966;2023-01-29T07:03:41;101242.47;;;-0.57;82.27
70133;BME280;57495;49.922;7.966;2023-01-29T07:05:42;101245.06;;;-0.56;82.97
70133;BME280;57495;49.922;7.966;2023-01-29T07:07:44;101247.88;;;-0.64;81.49
70133;BME280;57495;49.922;7.966;2023-01-29T07:09:45;101252.97;;;-0.57;80.19
70133;BME280;57495;49.922;7.966;2023-01-29T07:11:46;101259.00;;;-0.54;80.16
70133;BME280;57495;49.922;7.966;2023-01-29T07:13:48;101257.38;;;-0.58;80.22
70133;BME280;57495;49.922;7.966;2023-01-29T07:15:50;101262.56;;;-0.55;79.64
70133;BME280;57495;49.922;7.966;2023-01-29T07:17:57;101261.94;;;-0.65;80.06
70133;BME280;57495;49.922;7.966;2023-01-29T07:19:58;101261.72;;;-0.57;80.56
70133;BME280;57495;49.922;7.966;2023-01-29T07:21:59;101256.44;;;-0.55;80.45
70133;BME280;57495;49.922;7.966;2023-01-29T07:24:01;101269.66;;;-0.59;80.07
70133;BME280;57495;49.922;7.966;2023-01-29T07:26:04;101275.66;;;-0.53;81.03
70133;BME280;57495;49.922;7.966;2023-01-29T07:28:06;101284.41;;;-0.54;82.43
70133;BME280;57495;49.922;7.966;2023-01-29T07:30:09;101291.47;;;-0.56;82.00
70133;BME280;57495;49.922;7.966;2023-01-29T07:32:11;101299.41;;;-0.58;82.34
70133;BME280;57495;49.922;7.966;2023-01-29T07:34:13;101302.88;;;-0.57;82.58
70133;BME280;57495;49.922;7.966;2023-01-29T07:36:14;101297.56;;;-0.54;82.19
70133;BME280;57495;49.922;7.966;2023-01-29T07:38:16;101295.06;;;-0.59;82.26
70133;BME280;57495;49.922;7.966;2023-01-29T07:40:17;101295.75;;;-0.52;82.66
70133;BME280;57495;49.922;7.966;2023-01-29T07:42:18;101300.19;;;-0.54;83.06
70133;BME280;57495;49.922;7.966;2023-01-29T07:44:20;101293.97;;;-0.52;83.37
70133;BME280;57495;49.922;7.966;2023-01-29T07:46:21;101289.59;;;-0.51;83.20
70133;BME280;57495;49.922;7.966;2023-01-29T07:48:24;101288.72;;;-0.52;82.56
70133;BME280;57495;49.922;7.966;2023-01-29T07:50:26;101284.63;;;-0.62;80.97
70133;BME280;57495;49.922;7.966;2023-01-29T07:52:28;101286.22;;;-0.56;81.47
70133;BME280;57495;49.922;7.966;2023-01-29T07:54:30;101281.69;;;-0.50;81.09
70133;BME280;57495;49.922;7.966;2023-01-29T07:56:31;101281.91;;;-0.93;83.82
70133;BME280;57495;49.922;7.966;2023-01-29T07:58:33;101278.06;;;-0.80;84.92
70133;BME280;57495;49.922;7.966;2023-01-29T08:00:34;101273.47;;;-0.70;84.69
70133;BME280;57495;49.922;7.966;2023-01-29T08:02:36;101277.94;;;-0.74;83.69
70133;BME280;57495;49.922;7.966;2023-01-29T08:04:39;101276.09;;;-0.70;84.04
70133;BME280;57495;49.922;7.966;2023-01-29T08:06:40;101272.31;;;-0.60;83.40
70133;BME280;57495;49.922;7.966;2023-01-29T08:08:42;101268.66;;;-0.54;83.92
70133;BME280;57495;49.922;7.966;2023-01-29T08:10:43;101272.44;;;-0.65;84.70
70133;BME280;57495;49.922;7.966;2023-01-29T08:12:44;101274.09;;;-0.61;82.92
70133;BME280;57495;49.922;7.966;2023-01-29T08:14:46;101279.00;;;-0.48;82.28
70133;BME280;57495;49.922;7.966;2023-01-29T08:16:47;101258.50;;;-0.35;82.39
70133;BME280;57495;49.922;7.966;2023-01-29T08:18:49;101256.84;;;-0.38;80.57
70133;BME280;57495;49.922;7.966;2023-01-29T08:20:51;101261.63;;;-0.54;79.96
70133;BME280;57495;49.922;7.966;2023-01-29T08:22:58;101266.81;;;-0.51;80.08
70133;BME280;57495;49.922;7.966;2023-01-29T08:25:00;101282.38;;;-0.43;80.25
70133;BME280;57495;49.922;7.966;2023-01-29T08:27:01;101279.69;;;-0.42;79.47
70133;BME280;57495;49.922;7.966;2023-01-29T08:29:03;101294.44;;;-0.36;79.64
70133;BME280;57495;49.922;7.966;2023-01-29T08:31:12;101298.69;;;-0.32;81.87
70133;BME280;57495;49.922;7.966;2023-01-29T08:33:13;101290.81;;;-0.32;82.22
70133;BME280;57495;49.922;7.966;2023-01-29T08:35:15;101279.44;;;-0.32;81.01
70133;BME280;57495;49.922;7.966;2023-01-29T08:37:17;101263.47;;;-0.25;79.98
70133;BME280;57495;49.922;7.966;2023-01-29T08:39:19;101257.63;;;-0.34;78.52
70133;BME280;57495;49.922;7.966;2023-01-29T08:41:20;101266.91;;;-0.23;80.44
70133;BME280;57495;49.922;7.966;2023-01-29T08:43:21;101273.34;;;-0.02;80.55
70133;BME280;57495;49.922;7.966;2023-01-29T08:45:23;101280.00;;;0.10;79.40
70133;BME280;57495;49.922;7.966;2023-01-29T08:47:24;101281.50;;;0.19;79.49
70133;BME280;57495;49.922;7.966;2023-01-29T08:49:26;101269.94;;;0.25;79.01
70133;BME280;57495;49.922;7.966;2023-01-29T08:51:27;101273.19;;;0.33;78.40
70133;BME280;57495;49.922;7.966;2023-01-29T08:53:30;101276.63;;;0.35;78.59
70133;BME280;57495;49.922;7.966;2023-01-29T08:55:32;101288.69;;;0.42;78.34
70133;BME280;57495;49.922;7.966;2023-01-29T08:57:35;101293.16;;;0.40;78.04
70133;BME280;57495;49.922;7.966;2023-01-29T08:59:36;101288.16;;;0.31;78.26
70133;BME280;57495;49.922;7.966;2023-01-29T09:01:38;101286.22;;;0.37;77.89
70133;BME280;57495;49.922;7.966;2023-01-29T09:03:40;101291.38;;;0.41;77.96
70133;BME280;57495;49.922;7.966;2023-01-29T09:05:43;101290.53;;;0.40;78.33
70133;BME280;57495;49.922;7.966;2023-01-29T09:07:45;101293.59;;;0.54;78.20
70133;BME280;57495;49.922;7.966;2023-01-29T09:09:48;101291.22;;;0.47;78.34
70133;BME280;57495;49.922;7.966;2023-01-29T09:11:49;101298.41;;;0.40;78.88
70133;BME280;57495;49.922;7.966;2023-01-29T09:13:51;101294.66;;;0.49;78.29
70133;BME280;57495;49.922;7.966;2023-01-29T09:15:52;101288.84;;;0.37;77.73
70133;BME280;57495;49.922;7.966;2023-01-29T09:17:54;101313.19;;;0.44;77.87
70133;BME280;57495;49.922;7.966;2023-01-29T09:19:55;101318.84;;;0.32;77.49
70133;BME280;57495;49.922;7.966;2023-01-29T09:21:57;101314.16;;;0.42;77.91
70133;BME280;57495;49.922;7.966;2023-01-29T09:23:59;101311.66;;;0.37;78.10
70133;BME280;57495;49.922;7.966;2023-01-29T09:26:02;101307.06;;;0.44;77.51
70133;BME280;57495;49.922;7.966;2023-01-29T09:28:04;101300.28;;;0.36;77.98
70133;BME280;57495;49.922;7.966;2023-01-29T09:30:07;101292.84;;;0.51;77.90
70133;BME280;57495;49.922;7.966;2023-01-29T09:32:08;101307.16;;;0.41;77.30
70133;BME280;57495;49.922;7.966;2023-01-29T09:34:09;101311.56;;;0.40;76.26
70133;BME280;57495;49.922;7.966;2023-01-29T09:36:11;101323.91;;;0.38;77.06
70133;BME280;57495;49.922;7.966;2023-01-29T09:38:13;101323.03;;;0.39;77.87
70133;BME280;57495;49.922;7.966;2023-01-29T09:40:23;101326.22;;;0.19;77.79
70133;BME280;57495;49.922;7.966;2023-01-29T09:42:29;101323.84;;;0.10;77.99
70133;BME280;57495;49.922;7.966;2023-01-29T09:44:45;101318.28;;;0.21;77.58
70133;BME280;57495;49.922;7.966;2023-01-29T09:46:50;101320.59;;;0.31;77.76
70133;BME280;57495;49.922;7.966;2023-01-29T09:48:58;101315.13;;;0.39;78.26
70133;BME280;57495;49.922;7.966;2023-01-29T09:51:04;101316.91;;;0.37;78.36
70133;BME280;57495;49.922;7.966;2023-01-29T09:53:14;101313.31;;;0.41;78.33
70133;BME280;57495;49.922;7.966;2023-01-29T09:55:20;101316.75;;;0.43;77.50
70133;BME280;57495;49.922;7.966;2023-01-29T09:57:26;101318.41;;;0.46;77.72
70133;BME280;57495;49.922;7.966;2023-01-29T09:59:30;101328.97;;;0.44;77.40
70133;BME280;57495;49.922;7.966;2023-01-29T10:01:37;101326.59;;;0.36;77.52
70133;BME280;57495;49.922;7.966;2023-01-29T10:03:58;101334.13;;;0.49;77.03
70133;BME280;57495;49.922;7.966;2023-01-29T10:06:17;101329.16;;;0.38;77.58
70133;BME280;57495;49.922;7.966;2023-01-29T10:08:52;101326.41;;;0.43;77.26
70133;BME280;57495;49.922;7.966;2023-01-29T10:11:05;101313.47;;;0.35;77.20
70133;BME280;57495;49.922;7.966;2023-01-29T10:13:19;101307.91;;;0.46;77.42
70133;BME280;57495;49.922;7.966;2023-01-29T10:15:48;101312.53;;;0.37;77.10
70133;BME280;57495;49.922;7.966;2023-01-29T10:17:59;101309.78;;;0.41;77.01
70133;BME280;57495;49.922;7.966;2023-01-29T10:22:42;101316.34;;;0.55;76.37
70133;BME280;57495;49.922;7.966;2023-01-29T10:24:50;101326.72;;;0.62;77.11
70133;BME280;57495;49.922;7.966;2023-01-29T10:26:54;101321.34;;;0.65;76.83
70133;BME280;57495;49.922;7.966;2023-01-29T10:28:56;101312.25;;;0.75;76.88
70133;BME280;57495;49.922;7.966;2023-01-29T10:31:03;101300.88;;;0.74;75.73
70133;BME280;57495;49.922;7.966;2023-01-29T10:33:12;101301.06;;;0.68;75.34
70133;BME280;57495;49.922;7.966;2023-01-29T10:35:22;101290.31;;;0.76;75.24
70133;BME280;57495;49.922;7.966;2023-01-29T10:37:33;101277.25;;;0.73;76.00
70133;BME280;57495;49.922;7.966;2023-01-29T10:39:36;101273.38;;;0.27;77.22
70133;BME280;57495;49.922;7.966;2023-01-29T10:41:49;101267.19;;;-0.02;76.87
70133;BME280;57495;49.922;7.966;2023-01-29T10:44:03;101261.75;;;0.35;77.35
70133;BME280;57495;49.922;7.966;2023-01-29T10:46:17;101250.69;;;0.52;75.23
70133;BME280;57495;49.922;7.966;2023-01-29T10:48:43;101245.75;;;0.70;75.66
70133;BME280;57495;49.922;7.966;2023-01-29T10:50:47;101245.31;;;-0.03;77.77
70133;BME280;57495;49.922;7.966;2023-01-29T10:53:07;101235.38;;;0.07;76.22
70133;BME280;57495;49.922;7.966;2023-01-29T10:55:27;101226.53;;;0.40;77.63
70133;BME280;57495;49.922;7.966;2023-01-29T10:57:46;101205.38;;;0.14;77.98
70133;BME280;57495;49.922;7.966;2023-01-29T11:00:01;101214.78;;;0.22;75.78
70133;BME280;57495;49.922;7.966;2023-01-29T11:02:15;101218.63;;;-0.18;76.69